sensor_id;sensor_type;location;lat;lon;timestamp;temperature;humidity
46758;DHT22;32509;47.750;-3.396;2024-02-26T00:02:19;10.10;99.90
46758;DHT22;32509;47.750;-3.396;2024-02-26T00:04:45;10.10;99.90
46758;DHT22;32509;47.750;-3.396;2024-02-26T00:07:11;10.10;99.90
46758;DHT22;32509;47.750;-3.396;2024-02-26T00:09:36;10.10;99.90
46758;DHT22;32509;47.750;-3.396;2024-02-26T00:12:03;10.20;99.90
46758;DHT22;32509;47.750;-3.396;2024-02-26T00:14:30;10.20;99.90
46758;DHT22;32509;47.750;-3.396;2024-02-26T00:16:56;10.20;99.90
46758;DHT22;32509;47.750;-3.396;2024-02-26T00:19:22;10.20;99.90
46758;DHT22;32509;47.750;-3.396;2024-02-26T00:21:47;10.20;99.90
46758;DHT22;32509;47.750;-3.396;2024-02-26T00:24:13;10.20;99.90
46758;DHT22;32509;47.750;-3.396;2024-02-26T00:26:39;10.20;99.90
46758;DHT22;32509;47.750;-3.396;2024-02-26T00:29:05;10.20;99.90
46758;DHT22;32509;47.750;-3.396;2024-02-26T00:31:31;10.20;99.90
46758;DHT22;32509;47.750;-3.396;2024-02-26T00:33:56;10.20;99.90
46758;DHT22;32509;47.750;-3.396;2024-02-26T00:36:22;10.20;99.90
46758;DHT22;32509;47.750;-3.396;2024-02-26T00:38:48;10.10;99.90
46758;DHT22;32509;47.750;-3.396;2024-02-26T00:41:20;10.20;99.90
46758;DHT22;32509;47.750;-3.396;2024-02-26T00:43:46;10.20;99.90
46758;DHT22;32509;47.750;-3.396;2024-02-26T00:46:12;10.20;99.90
46758;DHT22;32509;47.750;-3.396;2024-02-26T00:48:38;10.20;99.90
46758;DHT22;32509;47.750;-3.396;2024-02-26T00:51:05;10.20;99.90
46758;DHT22;32509;47.750;-3.396;2024-02-26T00:53:31;10.20;99.90
46758;DHT22;32509;47.750;-3.396;2024-02-26T00:55:57;10.20;99.90
46758;DHT22;32509;47.750;-3.396;2024-02-26T00:58:25;10.20;99.90
46758;DHT22;32509;47.750;-3.396;2024-02-26T01:00:51;10.10;99.90
46758;DHT22;32509;47.750;-3.396;2024-02-26T01:03:17;10.20;99.90
46758;DHT22;32509;47.750;-3.396;2024-02-26T01:05:43;10.20;99.90
46758;DHT22;32509;47.750;-3.396;2024-02-26T01:08:09;10.20;99.90
46758;DHT22;32509;47.750;-3.396;2024-02-26T01:10:35;10.20;99.90
46758;DHT22;32509;47.750;-3.396;2024-02-26T01:13:01;10.20;99.90
46758;DHT22;32509;47.750;-3.396;2024-02-26T01:15:27;10.20;99.90
46758;DHT22;32509;47.750;-3.396;2024-02-26T01:17:52;10.20;99.90
46758;DHT22;32509;47.750;-3.396;2024-02-26T01:20:19;10.20;99.90
46758;DHT22;32509;47.750;-3.396;2024-02-26T01:22:44;10.20;99.90
46758;DHT22;32509;47.750;-3.396;2024-02-26T01:25:12;10.20;99.90
46758;DHT22;32509;47.750;-3.396;2024-02-26T01:27:38;10.10;99.90
46758;DHT22;32509;47.750;-3.396;2024-02-26T01:30:07;10.10;99.90
46758;DHT22;32509;47.750;-3.396;2024-02-26T01:32:33;10.20;99.90
46758;DHT22;32509;47.750;-3.396;2024-02-26T01:34:58;10.20;99.90
46758;DHT22;32509;47.750;-3.396;2024-02-26T01:37:24;10.20;99.90
46758;DHT22;32509;47.750;-3.396;2024-02-26T01:39:51;10.20;99.90
46758;DHT22;32509;47.750;-3.396;2024-02-26T01:42:16;10.30;99.90
46758;DHT22;32509;47.750;-3.396;2024-02-26T01:44:42;10.30;99.90
46758;DHT22;32509;47.750;-3.396;2024-02-26T01:47:10;10.20;99.90
46758;DHT22;32509;47.750;-3.396;2024-02-26T01:49:37;10.20;99.90
46758;DHT22;32509;47.750;-3.396;2024-02-26T01:52:03;10.10;99.90
46758;DHT22;32509;47.750;-3.396;2024-02-26T01:54:30;10.20;99.90
46758;DHT22;32509;47.750;-3.396;2024-02-26T01:56:56;10.20;99.90
46758;DHT22;32509;47.750;-3.396;2024-02-26T01:59:23;10.20;99.90
46758;DHT22;32509;47.750;-3.396;2024-02-26T02:01:54;10.20;99.90
46758;DHT22;32509;47.750;-3.396;2024-02-26T02:04:22;10.20;99.90
46758;DHT22;32509;47.750;-3.396;2024-02-26T02:06:48;10.20;99.90
46758;DHT22;32509;47.750;-3.396;2024-02-26T02:09:15;10.20;99.90
46758;DHT22;32509;47.750;-3.396;2024-02-26T02:11:41;10.20;99.90
46758;DHT22;32509;47.750;-3.396;2024-02-26T02:14:07;10.10;99.90
46758;DHT22;32509;47.750;-3.396;2024-02-26T02:16:33;10.10;99.90
46758;DHT22;32509;47.750;-3.396;2024-02-26T02:18:59;10.10;99.90
46758;DHT22;32509;47.750;-3.396;2024-02-26T02:21:25;10.10;99.90
46758;DHT22;32509;47.750;-3.396;2024-02-26T02:23:51;10.10;99.90
46758;DHT22;32509;47.750;-3.396;2024-02-26T02:26:17;10.10;99.90
46758;DHT22;32509;47.750;-3.396;2024-02-26T02:28:44;10.10;99.90
46758;DHT22;32509;47.750;-3.396;2024-02-26T02:31:12;10.00;99.90
46758;DHT22;32509;47.750;-3.396;2024-02-26T02:33:38;10.00;99.90
46758;DHT22;32509;47.750;-3.396;2024-02-26T02:36:04;10.10;99.90
46758;DHT22;32509;47.750;-3.396;2024-02-26T02:38:30;10.10;99.90
46758;DHT22;32509;47.750;-3.396;2024-02-26T02:40:57;10.10;99.90
46758;DHT22;32509;47.750;-3.396;2024-02-26T02:43:23;10.10;99.90
46758;DHT22;32509;47.750;-3.396;2024-02-26T02:45:48;10.00;99.90
46758;DHT22;32509;47.750;-3.396;2024-02-26T02:48:14;10.00;99.90
46758;DHT22;32509;47.750;-3.396;2024-02-26T02:50:40;10.10;99.90
46758;DHT22;32509;47.750;-3.396;2024-02-26T02:53:05;10.10;99.90
46758;DHT22;32509;47.750;-3.396;2024-02-26T02:55:31;9.90;99.90
46758;DHT22;32509;47.750;-3.396;2024-02-26T02:57:57;9.90;99.90
46758;DHT22;32509;47.750;-3.396;2024-02-26T03:00:23;9.90;99.90
46758;DHT22;32509;47.750;-3.396;2024-02-26T03:02:49;9.90;99.90
46758;DHT22;32509;47.750;-3.396;2024-02-26T03:05:15;9.90;99.90
46758;DHT22;32509;47.750;-3.396;2024-02-26T03:07:41;9.80;99.90
46758;DHT22;32509;47.750;-3.396;2024-02-26T03:10:07;9.80;99.90
46758;DHT22;32509;47.750;-3.396;2024-02-26T03:12:34;9.80;99.90
46758;DHT22;32509;47.750;-3.396;2024-02-26T03:15:00;9.80;99.90
46758;DHT22;32509;47.750;-3.396;2024-02-26T03:17:28;9.80;99.90
46758;DHT22;32509;47.750;-3.396;2024-02-26T03:19:54;9.80;99.90
46758;DHT22;32509;47.750;-3.396;2024-02-26T03:22:21;9.70;99.90
46758;DHT22;32509;47.750;-3.396;2024-02-26T03:24:47;9.70;99.90
46758;DHT22;32509;47.750;-3.396;2024-02-26T03:27:13;9.70;99.90
46758;DHT22;32509;47.750;-3.396;2024-02-26T03:29:39;9.70;99.90
46758;DHT22;32509;47.750;-3.396;2024-02-26T03:32:06;9.80;99.90
46758;DHT22;32509;47.750;-3.396;2024-02-26T03:34:32;9.80;99.90
46758;DHT22;32509;47.750;-3.396;2024-02-26T03:37:00;9.80;99.90
46758;DHT22;32509;47.750;-3.396;2024-02-26T03:39:26;9.90;99.90
46758;DHT22;32509;47.750;-3.396;2024-02-26T03:41:52;9.80;99.90
46758;DHT22;32509;47.750;-3.396;2024-02-26T03:44:18;9.80;99.90
46758;DHT22;32509;47.750;-3.396;2024-02-26T03:46:44;9.80;99.90
46758;DHT22;32509;47.750;-3.396;2024-02-26T03:49:10;9.70;99.90
46758;DHT22;32509;47.750;-3.396;2024-02-26T03:51:35;9.60;99.90
46758;DHT22;32509;47.750;-3.396;2024-02-26T03:54:01;9.70;99.90
46758;DHT22;32509;47.750;-3.396;2024-02-26T03:56:27;9.80;99.90
46758;DHT22;32509;47.750;-3.396;2024-02-26T03:58:53;9.70;99.90
46758;DHT22;32509;47.750;-3.396;2024-02-26T04:01:19;9.60;99.90
46758;DHT22;32509;47.750;-3.396;2024-02-26T04:03:45;9.60;99.90
46758;DHT22;32509;47.750;-3.396;2024-02-26T04:06:11;9.70;99.90
46758;DHT22;32509;47.750;-3.396;2024-02-26T04:08:40;9.60;99.90
46758;DHT22;32509;47.750;-3.396;2024-02-26T04:11:05;9.50;99.90
46758;DHT22;32509;47.750;-3.396;2024-02-26T04:13:36;9.50;99.90
46758;DHT22;32509;47.750;-3.396;2024-02-26T04:16:04;9.40;99.90
46758;DHT22;32509;47.750;-3.396;2024-02-26T04:18:31;9.30;99.90
46758;DHT22;32509;47.750;-3.396;2024-02-26T04:20:57;9.30;99.90
46758;DHT22;32509;47.750;-3.396;2024-02-26T04:23:23;9.40;99.90
46758;DHT22;32509;47.750;-3.396;2024-02-26T04:25:49;9.40;99.90
46758;DHT22;32509;47.750;-3.396;2024-02-26T04:28:15;9.40;99.90
46758;DHT22;32509;47.750;-3.396;2024-02-26T04:30:41;9.40;99.90
46758;DHT22;32509;47.750;-3.396;2024-02-26T04:33:07;9.30;99.90
46758;DHT22;32509;47.750;-3.396;2024-02-26T04:35:32;9.40;99.90
46758;DHT22;32509;47.750;-3.396;2024-02-26T04:38:00;9.30;99.90
46758;DHT22;32509;47.750;-3.396;2024-02-26T04:40:26;9.40;99.90
46758;DHT22;32509;47.750;-3.396;2024-02-26T04:42:52;9.40;99.90
46758;DHT22;32509;47.750;-3.396;2024-02-26T04:45:18;9.30;99.90
46758;DHT22;32509;47.750;-3.396;2024-02-26T04:47:43;9.30;99.90
46758;DHT22;32509;47.750;-3.396;2024-02-26T04:50:09;9.30;99.90
46758;DHT22;32509;47.750;-3.396;2024-02-26T04:52:35;9.20;99.90
46758;DHT22;32509;47.750;-3.396;2024-02-26T04:55:02;9.20;99.90
46758;DHT22;32509;47.750;-3.396;2024-02-26T04:57:28;9.10;99.90
46758;DHT22;32509;47.750;-3.396;2024-02-26T04:59:53;9.10;99.90
46758;DHT22;32509;47.750;-3.396;2024-02-26T05:02:19;9.10;99.90
46758;DHT22;32509;47.750;-3.396;2024-02-26T05:04:45;9.00;99.90
46758;DHT22;32509;47.750;-3.396;2024-02-26T05:07:11;9.00;99.90
46758;DHT22;32509;47.750;-3.396;2024-02-26T05:09:38;8.90;99.90
46758;DHT22;32509;47.750;-3.396;2024-02-26T05:12:04;9.00;99.90
46758;DHT22;32509;47.750;-3.396;2024-02-26T05:14:31;9.00;99.90
46758;DHT22;32509;47.750;-3.396;2024-02-26T05:16:56;9.10;99.90
46758;DHT22;32509;47.750;-3.396;2024-02-26T05:19:22;9.10;99.90
46758;DHT22;32509;47.750;-3.396;2024-02-26T05:21:48;9.10;99.90
46758;DHT22;32509;47.750;-3.396;2024-02-26T05:24:16;9.10;99.90
46758;DHT22;32509;47.750;-3.396;2024-02-26T05:26:43;9.00;99.90
46758;DHT22;32509;47.750;-3.396;2024-02-26T05:29:09;9.10;99.90
46758;DHT22;32509;47.750;-3.396;2024-02-26T05:31:35;9.00;99.90
46758;DHT22;32509;47.750;-3.396;2024-02-26T05:34:00;9.00;99.90
46758;DHT22;32509;47.750;-3.396;2024-02-26T05:36:26;9.00;99.90
46758;DHT22;32509;47.750;-3.396;2024-02-26T05:38:54;9.00;99.90
46758;DHT22;32509;47.750;-3.396;2024-02-26T05:41:20;9.00;99.90
46758;DHT22;32509;47.750;-3.396;2024-02-26T05:43:52;8.90;99.90
46758;DHT22;32509;47.750;-3.396;2024-02-26T05:46:18;8.80;99.90
46758;DHT22;32509;47.750;-3.396;2024-02-26T05:48:46;8.80;99.90
46758;DHT22;32509;47.750;-3.396;2024-02-26T05:51:12;8.80;99.90
46758;DHT22;32509;47.750;-3.396;2024-02-26T05:53:38;8.90;99.90
46758;DHT22;32509;47.750;-3.396;2024-02-26T05:56:04;8.90;99.90
46758;DHT22;32509;47.750;-3.396;2024-02-26T05:58:29;9.00;99.90
46758;DHT22;32509;47.750;-3.396;2024-02-26T06:00:55;9.10;99.90
46758;DHT22;32509;47.750;-3.396;2024-02-26T06:03:21;9.00;99.90
46758;DHT22;32509;47.750;-3.396;2024-02-26T06:05:46;9.00;99.90
46758;DHT22;32509;47.750;-3.396;2024-02-26T06:08:12;8.90;99.90
46758;DHT22;32509;47.750;-3.396;2024-02-26T06:10:39;9.00;99.90
46758;DHT22;32509;47.750;-3.396;2024-02-26T06:13:05;9.00;99.90
46758;DHT22;32509;47.750;-3.396;2024-02-26T06:15:31;9.00;99.90
46758;DHT22;32509;47.750;-3.396;2024-02-26T06:17:56;8.90;99.90
46758;DHT22;32509;47.750;-3.396;2024-02-26T06:20:22;8.90;99.90
46758;DHT22;32509;47.750;-3.396;2024-02-26T06:22:48;8.80;99.90
46758;DHT22;32509;47.750;-3.396;2024-02-26T06:25:14;8.90;99.90
46758;DHT22;32509;47.750;-3.396;2024-02-26T06:27:40;8.90;99.90
46758;DHT22;32509;47.750;-3.396;2024-02-26T06:30:06;8.80;99.90
46758;DHT22;32509;47.750;-3.396;2024-02-26T06:32:34;8.80;99.90
46758;DHT22;32509;47.750;-3.396;2024-02-26T06:34:59;8.90;99.90
46758;DHT22;32509;47.750;-3.396;2024-02-26T06:37:25;9.00;99.90
46758;DHT22;32509;47.750;-3.396;2024-02-26T06:39:51;9.00;99.90
46758;DHT22;32509;47.750;-3.396;2024-02-26T06:42:17;8.90;99.90
46758;DHT22;32509;47.750;-3.396;2024-02-26T06:44:43;8.90;99.90
46758;DHT22;32509;47.750;-3.396;2024-02-26T06:47:09;8.90;99.90
46758;DHT22;32509;47.750;-3.396;2024-02-26T06:49:35;8.90;99.90
46758;DHT22;32509;47.750;-3.396;2024-02-26T06:52:00;8.90;99.90
46758;DHT22;32509;47.750;-3.396;2024-02-26T06:54:26;8.90;99.90
46758;DHT22;32509;47.750;-3.396;2024-02-26T07:12:21;8.80;99.90
46758;DHT22;32509;47.750;-3.396;2024-02-26T07:14:47;8.80;99.90
46758;DHT22;32509;47.750;-3.396;2024-02-26T07:17:14;8.80;99.90
46758;DHT22;32509;47.750;-3.396;2024-02-26T07:19:41;8.80;99.90
46758;DHT22;32509;47.750;-3.396;2024-02-26T07:22:07;8.90;99.90
46758;DHT22;32509;47.750;-3.396;2024-02-26T07:24:33;8.80;99.90
46758;DHT22;32509;47.750;-3.396;2024-02-26T07:26:59;8.90;99.90
46758;DHT22;32509;47.750;-3.396;2024-02-26T07:29:25;9.00;99.90
46758;DHT22;32509;47.750;-3.396;2024-02-26T07:31:50;9.00;99.90
46758;DHT22;32509;47.750;-3.396;2024-02-26T07:34:16;8.90;99.90
46758;DHT22;32509;47.750;-3.396;2024-02-26T07:36:42;8.90;99.90
46758;DHT22;32509;47.750;-3.396;2024-02-26T07:39:08;8.90;99.90
46758;DHT22;32509;47.750;-3.396;2024-02-26T07:41:34;8.80;99.90
46758;DHT22;32509;47.750;-3.396;2024-02-26T07:43:59;8.80;99.90
46758;DHT22;32509;47.750;-3.396;2024-02-26T07:46:25;8.80;99.90
46758;DHT22;32509;47.750;-3.396;2024-02-26T07:48:51;8.80;99.90
46758;DHT22;32509;47.750;-3.396;2024-02-26T07:51:17;8.80;99.90
46758;DHT22;32509;47.750;-3.396;2024-02-26T07:53:43;8.80;99.90
46758;DHT22;32509;47.750;-3.396;2024-02-26T07:56:09;8.80;99.90
46758;DHT22;32509;47.750;-3.396;2024-02-26T07:58:35;8.80;99.90
46758;DHT22;32509;47.750;-3.396;2024-02-26T08:01:01;8.80;99.90
46758;DHT22;32509;47.750;-3.396;2024-02-26T08:03:27;8.80;99.90
46758;DHT22;32509;47.750;-3.396;2024-02-26T08:05:52;8.80;99.90
46758;DHT22;32509;47.750;-3.396;2024-02-26T08:08:18;8.90;99.90
46758;DHT22;32509;47.750;-3.396;2024-02-26T08:10:44;8.80;99.90
46758;DHT22;32509;47.750;-3.396;2024-02-26T08:13:10;8.80;99.90
46758;DHT22;32509;47.750;-3.396;2024-02-26T08:15:35;8.80;99.90
46758;DHT22;32509;47.750;-3.396;2024-02-26T08:18:03;8.80;99.90
46758;DHT22;32509;47.750;-3.396;2024-02-26T08:20:29;8.70;99.90
46758;DHT22;32509;47.750;-3.396;2024-02-26T08:22:56;8.70;99.90
46758;DHT22;32509;47.750;-3.396;2024-02-26T08:25:22;8.80;99.90
46758;DHT22;32509;47.750;-3.396;2024-02-26T08:27:48;8.80;99.90
46758;DHT22;32509;47.750;-3.396;2024-02-26T08:30:15;8.80;99.90
46758;DHT22;32509;47.750;-3.396;2024-02-26T08:32:43;8.90;99.90
46758;DHT22;32509;47.750;-3.396;2024-02-26T08:35:09;8.80;99.90
46758;DHT22;32509;47.750;-3.396;2024-02-26T08:37:35;8.80;99.90
46758;DHT22;32509;47.750;-3.396;2024-02-26T08:40:01;8.90;99.90
46758;DHT22;32509;47.750;-3.396;2024-02-26T08:42:27;8.90;99.90
46758;DHT22;32509;47.750;-3.396;2024-02-26T08:44:53;8.90;99.90
46758;DHT22;32509;47.750;-3.396;2024-02-26T08:47:20;8.90;99.90
46758;DHT22;32509;47.750;-3.396;2024-02-26T08:49:45;8.80;99.90
46758;DHT22;32509;47.750;-3.396;2024-02-26T08:52:11;8.80;99.90
46758;DHT22;32509;47.750;-3.396;2024-02-26T08:54:37;9.00;99.90
46758;DHT22;32509;47.750;-3.396;2024-02-26T08:57:03;8.90;99.90
46758;DHT22;32509;47.750;-3.396;2024-02-26T08:59:29;8.90;99.90
46758;DHT22;32509;47.750;-3.396;2024-02-26T09:01:55;8.90;99.90
46758;DHT22;32509;47.750;-3.396;2024-02-26T09:04:21;8.90;99.90
46758;DHT22;32509;47.750;-3.396;2024-02-26T09:06:47;8.80;99.90
46758;DHT22;32509;47.750;-3.396;2024-02-26T09:09:13;8.80;99.90
46758;DHT22;32509;47.750;-3.396;2024-02-26T09:11:38;8.90;99.90
46758;DHT22;32509;47.750;-3.396;2024-02-26T09:14:04;8.90;99.90
46758;DHT22;32509;47.750;-3.396;2024-02-26T09:16:30;9.00;99.90
46758;DHT22;32509;47.750;-3.396;2024-02-26T09:18:57;9.00;99.90
46758;DHT22;32509;47.750;-3.396;2024-02-26T09:21:23;9.00;99.90
46758;DHT22;32509;47.750;-3.396;2024-02-26T09:23:50;9.00;99.90
46758;DHT22;32509;47.750;-3.396;2024-02-26T09:26:16;8.90;99.90
46758;DHT22;32509;47.750;-3.396;2024-02-26T09:28:42;9.00;99.90
46758;DHT22;32509;47.750;-3.396;2024-02-26T09:31:08;9.00;99.90
46758;DHT22;32509;47.750;-3.396;2024-02-26T09:33:34;9.10;99.90
46758;DHT22;32509;47.750;-3.396;2024-02-26T09:36:00;9.00;99.90
46758;DHT22;32509;47.750;-3.396;2024-02-26T09:38:27;9.00;99.90
46758;DHT22;32509;47.750;-3.396;2024-02-26T09:40:53;9.10;99.90
46758;DHT22;32509;47.750;-3.396;2024-02-26T09:43:22;9.20;99.90
46758;DHT22;32509;47.750;-3.396;2024-02-26T09:45:54;9.20;99.90
46758;DHT22;32509;47.750;-3.396;2024-02-26T09:48:20;9.10;99.90
46758;DHT22;32509;47.750;-3.396;2024-02-26T09:50:47;9.10;99.90
46758;DHT22;32509;47.750;-3.396;2024-02-26T09:53:14;9.10;99.90
46758;DHT22;32509;47.750;-3.396;2024-02-26T09:55:40;9.20;99.90
46758;DHT22;32509;47.750;-3.396;2024-02-26T09:58:06;9.10;99.90
46758;DHT22;32509;47.750;-3.396;2024-02-26T10:00:37;9.10;99.90
46758;DHT22;32509;47.750;-3.396;2024-02-26T10:03:04;9.10;99.90
46758;DHT22;32509;47.750;-3.396;2024-02-26T10:05:32;9.10;99.90
46758;DHT22;32509;47.750;-3.396;2024-02-26T10:08:00;9.10;99.90
46758;DHT22;32509;47.750;-3.396;2024-02-26T10:10:29;9.00;99.90
46758;DHT22;32509;47.750;-3.396;2024-02-26T10:12:54;9.00;99.90
46758;DHT22;32509;47.750;-3.396;2024-02-26T10:15:20;9.00;99.90
46758;DHT22;32509;47.750;-3.396;2024-02-26T10:17:46;9.10;99.90
46758;DHT22;32509;47.750;-3.396;2024-02-26T10:20:18;9.10;99.90
46758;DHT22;32509;47.750;-3.396;2024-02-26T10:22:47;9.10;99.90
46758;DHT22;32509;47.750;-3.396;2024-02-26T10:25:13;9.00;99.90
46758;DHT22;32509;47.750;-3.396;2024-02-26T10:27:41;9.00;99.90
46758;DHT22;32509;47.750;-3.396;2024-02-26T10:30:20;9.10;99.90
46758;DHT22;32509;47.750;-3.396;2024-02-26T10:32:48;9.20;99.90
46758;DHT22;32509;47.750;-3.396;2024-02-26T10:35:15;9.20;99.90
46758;DHT22;32509;47.750;-3.396;2024-02-26T10:37:41;9.20;99.90
46758;DHT22;32509;47.750;-3.396;2024-02-26T10:40:11;9.10;99.90
46758;DHT22;32509;47.750;-3.396;2024-02-26T10:42:37;9.10;99.90
46758;DHT22;32509;47.750;-3.396;2024-02-26T10:45:08;9.20;99.90
46758;DHT22;32509;47.750;-3.396;2024-02-26T10:47:37;9.30;99.90
46758;DHT22;32509;47.750;-3.396;2024-02-26T10:50:05;9.30;99.90
46758;DHT22;32509;47.750;-3.396;2024-02-26T10:52:35;9.30;99.90
46758;DHT22;32509;47.750;-3.396;2024-02-26T10:55:03;9.30;99.90
46758;DHT22;32509;47.750;-3.396;2024-02-26T10:57:40;9.40;99.90
46758;DHT22;32509;47.750;-3.396;2024-02-26T11:00:07;9.50;99.90
46758;DHT22;32509;47.750;-3.396;2024-02-26T11:02:36;9.50;99.90
46758;DHT22;32509;47.750;-3.396;2024-02-26T11:05:06;9.50;99.90
46758;DHT22;32509;47.750;-3.396;2024-02-26T11:07:33;9.50;99.90
46758;DHT22;32509;47.750;-3.396;2024-02-26T11:10:00;9.40;99.90
46758;DHT22;32509;47.750;-3.396;2024-02-26T11:12:28;9.40;99.90
46758;DHT22;32509;47.750;-3.396;2024-02-26T11:14:55;9.50;99.90
46758;DHT22;32509;47.750;-3.396;2024-02-26T12:52:13;8.70;99.90
46758;DHT22;32509;47.750;-3.396;2024-02-26T12:54:39;8.70;99.90
46758;DHT22;32509;47.750;-3.396;2024-02-26T12:57:08;8.80;99.90
46758;DHT22;32509;47.750;-3.396;2024-02-26T12:59:35;8.90;99.90
46758;DHT22;32509;47.750;-3.396;2024-02-26T13:02:01;9.00;99.90
46758;DHT22;32509;47.750;-3.396;2024-02-26T13:04:29;9.10;99.90
46758;DHT22;32509;47.750;-3.396;2024-02-26T13:06:55;9.20;99.90
46758;DHT22;32509;47.750;-3.396;2024-02-26T13:09:26;9.20;99.90
46758;DHT22;32509;47.750;-3.396;2024-02-26T13:11:55;9.20;99.90
46758;DHT22;32509;47.750;-3.396;2024-02-26T13:14:21;9.20;99.90
46758;DHT22;32509;47.750;-3.396;2024-02-26T13:16:59;9.20;99.90
46758;DHT22;32509;47.750;-3.396;2024-02-26T13:19:25;9.20;99.90
46758;DHT22;32509;47.750;-3.396;2024-02-26T13:21:51;9.20;99.90
46758;DHT22;32509;47.750;-3.396;2024-02-26T13:24:19;9.30;99.90
46758;DHT22;32509;47.750;-3.396;2024-02-26T13:26:45;9.40;99.90
46758;DHT22;32509;47.750;-3.396;2024-02-26T13:29:20;9.30;99.90
46758;DHT22;32509;47.750;-3.396;2024-02-26T13:31:46;9.20;99.90
46758;DHT22;32509;47.750;-3.396;2024-02-26T13:34:26;9.30;99.90
46758;DHT22;32509;47.750;-3.396;2024-02-26T13:36:57;9.30;99.90
46758;DHT22;32509;47.750;-3.396;2024-02-26T13:39:24;9.30;99.90
46758;DHT22;32509;47.750;-3.396;2024-02-26T13:41:51;9.40;99.90
46758;DHT22;32509;47.750;-3.396;2024-02-26T13:44:17;9.50;99.90
46758;DHT22;32509;47.750;-3.396;2024-02-26T13:46:43;9.50;99.90
46758;DHT22;32509;47.750;-3.396;2024-02-26T13:49:09;9.40;99.90
46758;DHT22;32509;47.750;-3.396;2024-02-26T13:51:37;9.40;99.90
46758;DHT22;32509;47.750;-3.396;2024-02-26T13:54:03;9.40;99.90
46758;DHT22;32509;47.750;-3.396;2024-02-26T13:56:29;9.40;99.90
46758;DHT22;32509;47.750;-3.396;2024-02-26T13:58:55;9.40;99.90
46758;DHT22;32509;47.750;-3.396;2024-02-26T14:01:21;9.30;99.90
